地図

経路データ

SID SEASON NUMBER BASIN SUBBASIN NAME ISO_TIME NATURE LAT LON WMO_WIND WMO_PRES WMO_AGENCY TRACK_TYPE DIST2LAND LANDFALL IFLAG USA_AGENCY USA_ATCF_ID USA_LAT USA_LON USA_RECORD USA_STATUS USA_WIND USA_PRES USA_SSHS USA_R34_NE USA_R34_SE USA_R34_SW USA_R34_NW USA_R50_NE USA_R50_SE USA_R50_SW USA_R50_NW USA_R64_NE USA_R64_SE USA_R64_SW USA_R64_NW USA_POCI USA_ROCI USA_RMW USA_EYE TOKYO_LAT TOKYO_LON TOKYO_GRADE TOKYO_WIND TOKYO_PRES TOKYO_R50_DIR TOKYO_R50_LONG TOKYO_R50_SHORT TOKYO_R30_DIR TOKYO_R30_LONG TOKYO_R30_SHORT TOKYO_LAND CMA_LAT CMA_LON CMA_CAT CMA_WIND CMA_PRES HKO_LAT HKO_LON HKO_CAT HKO_WIND HKO_PRES NEWDELHI_LAT NEWDELHI_LON NEWDELHI_GRADE NEWDELHI_WIND NEWDELHI_PRES NEWDELHI_CI NEWDELHI_DP NEWDELHI_POCI REUNION_LAT REUNION_LON REUNION_TYPE REUNION_WIND REUNION_PRES REUNION_TNUM REUNION_CI REUNION_RMW REUNION_R34_NE REUNION_R34_SE REUNION_R34_SW REUNION_R34_NW REUNION_R50_NE REUNION_R50_SE REUNION_R50_SW REUNION_R50_NW REUNION_R64_NE REUNION_R64_SE REUNION_R64_SW REUNION_R64_NW BOM_LAT BOM_LON BOM_TYPE BOM_WIND BOM_PRES BOM_TNUM BOM_CI BOM_RMW BOM_R34_NE BOM_R34_SE BOM_R34_SW BOM_R34_NW BOM_R50_NE BOM_R50_SE BOM_R50_SW BOM_R50_NW BOM_R64_NE BOM_R64_SE BOM_R64_SW BOM_R64_NW BOM_ROCI BOM_POCI BOM_EYE BOM_POS_METHOD BOM_PRES_METHOD NADI_LAT NADI_LON NADI_CAT NADI_WIND NADI_PRES WELLINGTON_LAT WELLINGTON_LON WELLINGTON_WIND WELLINGTON_PRES DS824_LAT DS824_LON DS824_STAGE DS824_WIND DS824_PRES TD9636_LAT TD9636_LON TD9636_STAGE TD9636_WIND TD9636_PRES TD9635_LAT TD9635_LON TD9635_WIND TD9635_PRES TD9635_ROCI NEUMANN_LAT NEUMANN_LON NEUMANN_CLASS NEUMANN_WIND NEUMANN_PRES MLC_LAT MLC_LON MLC_CLASS MLC_WIND MLC_PRES USA_GUST BOM_GUST BOM_GUST_PER REUNION_GUST REUNION_GUST_PER USA_SEAHGT USA_SEARAD_NE USA_SEARAD_SE USA_SEARAD_SW USA_SEARAD_NW STORM_SPEED STORM_DIR
1954201S06089 1955 32 SI MM NOT_NAMED 1954-07-20 06:00:00 TS -6.30000 89.2000 main 1189 1189 O________OO___ jtwc_sh SH011955 -6.30000 89.2000 -1 -6.30000 89.2000 TC 25 -6.30000 89.2000 7 9 264
1954201S06089 1955 32 SI MM NOT_NAMED 1954-07-20 09:00:00 TS -6.34756 88.7480 main 1238 1238 P________PP___ SH011955 -6.35009 88.7400 -1 -6.35009 88.7400 TC 25 -6.34248 88.7641 7 9 264
1954201S06089 1955 32 SI MM NOT_NAMED 1954-07-20 12:00:00 TS -6.39594 88.3108 main 1283 1283 O________OP___ jtwc_sh SH011955 -6.40000 88.3000 -1 -6.40000 88.3000 TC 25 -6.38782 88.3325 7 9 263
1954201S06089 1955 32 SI MM NOT_NAMED 1954-07-20 15:00:00 TS -6.44638 87.8982 main 1323 1323 P________PP___ SH011955 -6.44995 87.8925 -1 -6.44995 87.8925 TC 25 -6.43925 87.9097 7 8 263
1954201S06089 1955 32 SI MM NOT_NAMED 1954-07-20 18:00:00 TS -6.50000 87.5000 main 1367 1367 O________OO___ jtwc_sh SH011955 -6.50000 87.5000 -1 -6.50000 87.5000 TC 25 -6.50000 87.5000 1 8 262
1954201S06089 1955 32 SI MM NOT_NAMED 1954-07-20 21:00:00 TS -6.55224 87.0972 main 1412 1412 P________PP___ SH011955 -6.54249 87.0925 -1 -6.54249 87.0925 TC 25 -6.57175 87.1066 1 8 262
1954201S06089 1955 32 SI MM NOT_NAMED 1954-07-21 00:00:00 TS -6.61662 86.7092 main 1444 1444 O________OP___ jtwc_sh SH011955 -6.60000 86.7000 -1 -6.60000 86.7000 TC 25 -6.64985 86.7275 1 8 258
1954201S06089 1955 32 SI MM NOT_NAMED 1954-07-21 03:00:00 TS -6.70931 86.3482 main 1483 1483 P________PP___ SH011955 -6.69996 86.3425 -1 -6.69996 86.3425 TC 25 -6.72802 86.3597 1 7 255
1954201S06089 1955 32 SI MM NOT_NAMED 1954-07-21 06:00:00 TS -6.80000 86.0000 main 1515 1515 O________OO___ jtwc_sh SH011955 -6.80000 86.0000 -1 -6.80000 86.0000 TC 25 -6.80000 86.0000 1 7 258
1954201S06089 1955 32 SI MM NOT_NAMED 1954-07-21 09:00:00 TS -6.85868 85.6503 main 1542 1526 P________PP___ SH011955 -6.85747 85.6500 -1 -6.85747 85.6500 TC 25 -6.86110 85.6509 1 7 261
1954201S06089 1955 32 SI MM NOT_NAMED 1954-07-21 12:00:00 TS -6.90493 85.3025 main 1526 1515 O________OP___ jtwc_sh SH011955 -6.90000 85.3000 -1 -6.90000 85.3000 TC 25 -6.91479 85.3075 1 7 262
1954201S06089 1955 32 SI MM NOT_NAMED 1954-07-21 15:00:00 TS -6.95867 84.9584 main 1525 1512 P________PP___ SH011955 -6.95746 84.9575 -1 -6.95746 84.9575 TC 25 -6.96110 84.9603 1 7 262
1954201S06089 1955 32 SI MM NOT_NAMED 1954-07-21 18:00:00 TS -7.00000 84.6000 main 1512 1499 O________OO___ jtwc_sh SH011955 -7.00000 84.6000 -1 -7.00000 84.6000 TC 25 -7.00000 84.6000 1 7 266
1954201S06089 1955 32 SI MM NOT_NAMED 1954-07-21 21:00:00 TS -7.00935 84.2097 main 1499 1488 P________PP___ SH011955 -6.99998 84.2075 -1 -6.99998 84.2075 TC 25 -7.02808 84.2143 1 8 269
1954201S06089 1955 32 SI MM NOT_NAMED 1954-07-22 00:00:00 TS -7.01665 83.8050 main 1488 1478 O________OP___ jtwc_sh SH011955 -7.00000 83.8000 -1 -7.00000 83.8000 TC 25 -7.04994 83.8149 1 8 267
1954201S06089 1955 32 SI MM NOT_NAMED 1954-07-22 03:00:00 TS -7.05225 83.4027 main 1489 1480 P________PP___ SH011955 -7.04247 83.4000 -1 -7.04247 83.4000 TC 25 -7.07182 83.4081 1 8 264
1954201S06089 1955 32 SI MM NOT_NAMED 1954-07-22 06:00:00 TS -7.10000 83.0000 main 1480 1473 O________OO___ jtwc_sh SH011955 -7.10000 83.0000 -1 -7.10000 83.0000 TC 25 -7.10000 83.0000 1 8 263
1954201S06089 1955 32 SI MM NOT_NAMED 1954-07-22 09:00:00 TS -7.14619 82.6000 main 1473 1473 P________PP___ SH011955 -7.14997 82.6000 -1 -7.14997 82.6000 TC 25 -7.13865 82.6000 1 8 263
1954201S06089 1955 32 SI MM NOT_NAMED 1954-07-22 12:00:00 TS -7.19495 82.2000 main 1478 1474 O________OP___ jtwc_sh SH011955 -7.20000 82.2000 -1 -7.20000 82.2000 TC 25 -7.18486 82.2000 1 8 263
1954201S06089 1955 32 SI MM NOT_NAMED 1954-07-22 15:00:00 TS -7.24619 81.8000 main 1474 1474 P________PP___ SH011955 -7.24997 81.8000 -1 -7.24997 81.8000 TC 25 -7.23865 81.8000 1 8 262
1954201S06089 1955 32 SI MM NOT_NAMED 1954-07-22 18:00:00 TS -7.30000 81.4000 main 1481 1479 O________OO___ jtwc_sh SH011955 -7.30000 81.4000 -1 -7.30000 81.4000 TC 25 -7.30000 81.4000 1 8 262
1954201S06089 1955 32 SI MM NOT_NAMED 1954-07-22 21:00:00 TS -7.35086 81.0027 main 1491 1490 P________PP___ SH011955 -7.34246 81.0000 -1 -7.34246 81.0000 TC 25 -7.36765 81.0081 1 8 262
1954201S06089 1955 32 SI MM NOT_NAMED 1954-07-23 00:00:00 TS -7.41409 80.6050 main 1490 1490 O________OP___ jtwc_sh SH011955 -7.40000 80.6000 -1 -7.40000 80.6000 TC 25 -7.44227 80.6150 1 8 259
1954201S06089 1955 32 SI MM NOT_NAMED 1954-07-23 03:00:00 TS -7.50688 80.2098 main 1502 1502 P________PP___ SH011955 -7.49994 80.2075 -1 -7.49994 80.2075 TC 25 -7.52076 80.2143 1 8 257
1954201S06089 1955 32 SI MM NOT_NAMED 1954-07-23 06:00:00 TS -7.60000 79.8000 main 1515 1515 O________OO___ jtwc_sh SH011955 -7.60000 79.8000 -1 -7.60000 79.8000 TC 25 -7.60000 79.8000 1 9 260
1954201S06089 1955 32 SI MM NOT_NAMED 1954-07-23 09:00:00 TS -7.65697 79.3557 main 1529 1529 P________PP___ SH011955 -7.64998 79.3574 -1 -7.64998 79.3574 TC 25 -7.67095 79.3521 1 9 263
1954201S06089 1955 32 SI MM NOT_NAMED 1954-07-23 12:00:00 TS -7.71418 78.8975 main 1535 1535 O________OP___ jtwc_sh SH011955 -7.70000 78.9000 -1 -7.70000 78.9000 TC 25 -7.74254 78.8924 1 9 261
1954201S06089 1955 32 SI MM NOT_NAMED 1954-07-23 15:00:00 TS -7.80094 78.4355 main 1554 1554 P________PP___ SH011955 -7.79250 78.4350 -1 -7.79250 78.4350 TC 25 -7.81783 78.4365 1 9 258
1954201S06089 1955 32 SI MM NOT_NAMED 1954-07-23 18:00:00 TS -7.90000 78.0000 main 1573 1573 O________OO___ jtwc_sh SH011955 -7.90000 78.0000 -1 -7.90000 78.0000 TC 25 -7.90000 78.0000 1 8 256
1954201S06089 1955 32 SI MM NOT_NAMED 1954-07-23 21:00:00 TS -7.99747 77.6294 main 1592 1592 P________PP___ SH011955 -7.99991 77.6425 -1 -7.99991 77.6425 TC 25 -7.99261 77.6034 1 7 255
1954201S06089 1955 32 SI MM NOT_NAMED 1954-07-24 00:00:00 TS -8.09741 77.2758 main 1610 1610 O________OP___ jtwc_sh SH011955 -8.10000 77.3000 -1 -8.10000 77.3000 TC 25 -8.09223 77.2275 1 8 255
1954201S06089 1955 32 SI MM NOT_NAMED 1954-07-24 03:00:00 TS -8.19859 76.8876 main 1632 1632 P________PP___ SH011955 -8.20000 76.9000 -1 -8.20000 76.9000 TC 25 -8.19575 76.8628 1 8 255
1954201S06089 1955 32 SI MM NOT_NAMED 1954-07-24 06:00:00 TS -8.30000 76.5000 main 1654 1654 O________OO___ jtwc_sh SH011955 -8.30000 76.5000 -1 -8.30000 76.5000 TC 25 -8.30000 76.5000 1 8 255
1954201S06089 1955 32 SI MM NOT_NAMED 1954-07-24 09:00:00 TS -8.40127 76.1416 main 1678 1678 P________PP___ SH011955 -8.39993 76.1500 -1 -8.39993 76.1500 TC 25 -8.40396 76.1250 1 7 254
1954201S06089 1955 32 SI MM NOT_NAMED 1954-07-24 12:00:00 TS -8.50245 75.7833 main 1699 1699 O________OP___ jtwc_sh SH011955 -8.50000 75.8000 -1 -8.50000 75.8000 TC 25 -8.50736 75.7500 1 8 254
1954201S06089 1955 32 SI MM NOT_NAMED 1954-07-24 15:00:00 TS -8.60736 75.3917 main 1724 1724 P________PP___ SH011955 -8.60750 75.4000 -1 -8.60750 75.4000 TC 25 -8.60708 75.3750 1 8 256
1954201S06089 1955 32 SI MM NOT_NAMED 1954-07-24 18:00:00 TS -8.70000 75.0000 main 1749 1749 O________OO___ jtwc_sh SH011955 -8.70000 75.0000 -1 -8.70000 75.0000 TC 25 -8.70000 75.0000 1 8 258
1954201S06089 1955 32 SI MM NOT_NAMED 1954-07-24 21:00:00 TS -8.75789 74.6470 main 1774 1774 P________PP___ SH011955 -8.74992 74.6499 -1 -8.74992 74.6499 TC 25 -8.77383 74.6411 1 7 261
1954201S06089 1955 32 SI MM NOT_NAMED 1954-07-25 00:00:00 TS -8.81405 74.2932 main 1787 1787 O________OP___ jtwc_sh SH011955 -8.80000 74.3000 -1 -8.80000 74.3000 TC 25 -8.84216 74.2797 1 7 259
1954201S06089 1955 32 SI MM NOT_NAMED 1954-07-25 03:00:00 TS -8.89978 73.9112 main 1814 1814 P________PP___ SH011955 -8.89246 73.9150 -1 -8.89246 73.9150 TC 25 -8.91441 73.9035 1 8 257
1954201S06089 1955 32 SI MM NOT_NAMED 1954-07-25 06:00:00 TS -9.00000 73.5000 main 1842 1842 O________OO___ jtwc_sh SH011955 -9.00000 73.5000 -1 -9.00000 73.5000 TC 25 -9.00000 73.5000 1 9 257
1954201S06089 1955 32 SI MM NOT_NAMED 1954-07-25 09:00:00 TS -9.09713 73.0626 main 1871 1871 P________PP___ SH011955 -9.09244 73.0649 -1 -9.09244 73.0649 TC 25 -9.10651 73.0578 1 9 257
1954201S06089 1955 32 SI MM NOT_NAMED 1954-07-25 12:00:00 TS -9.20914 72.5958 main 1905 1905 O________OP___ jtwc_sh SH011955 -9.20000 72.6000 -1 -9.20000 72.6000 TC 25 -9.22741 72.5874 1 10 255
1954201S06089 1955 32 SI MM NOT_NAMED 1954-07-25 15:00:00 TS -9.34819 72.0994 main 1940 1906 P________PP___ SH011955 -9.34249 72.1000 -1 -9.34249 72.1000 TC 25 -9.35959 72.0983 1 10 254
1954201S06089 1955 32 SI MM NOT_NAMED 1954-07-25 18:00:00 TS -9.50000 71.6000 main 1906 1865 O________OO___ jtwc_sh SH011955 -9.50000 71.6000 -1 -9.50000 71.6000 TC 25 -9.50000 71.6000 1 10 252
1954201S06089 1955 32 SI MM NOT_NAMED 1954-07-25 21:00:00 TS -9.64041 71.1621 main 1865 1809 P________PP___ SH011955 -9.64985 71.1574 -1 -9.64985 71.1574 TC 25 -9.62153 71.1714 1 9 252
1954201S06089 1955 32 SI MM NOT_NAMED 1954-07-26 00:00:00 TS -9.78448 70.7087 main 1809 1761 O________OP___ jtwc_sh SH011955 -9.80000 70.7000 -1 -9.80000 70.7000 TC 25 -9.75344 70.7262 1 10 253
1954201S06089 1955 32 SI MM NOT_NAMED 1954-07-26 03:00:00 TS -9.92604 70.2125 main 1761 1697 P________PP___ SH011955 -9.93472 70.2098 -1 -9.93472 70.2098 TC 30 -9.90869 70.2180 1 11 254
1954201S06089 1955 32 SI MM NOT_NAMED 1954-07-26 06:00:00 TS -10.1000 69.6000 main 1697 1626 O________OO___ jtwc_sh SH011955 -10.1000 69.6000 -1 -10.1000 69.6000 TC 35 -10.1000 69.6000 2 14 253
1954201S06089 1955 32 SI MM NOT_NAMED 1954-07-26 09:00:00 TS -10.3356 68.8104 main 1618 1532 P________PP___ SH011955 -10.3275 68.8099 -1 -10.3275 68.8099 TC 35 -10.3519 68.8114 2 17 253
1954201S06089 1955 32 SI MM NOT_NAMED 1954-07-26 12:00:00 TS -10.6119 67.9043 main 1524 1432 O________OP___ jtwc_sh SH011955 -10.6000 67.9000 -1 -10.6000 67.9000 TC 35 -10.6358 67.9130 2 19 252
1954201S06089 1955 32 SI MM NOT_NAMED 1954-07-26 15:00:00 TS -10.9139 66.9577 main 1432 1341 P________PP___ SH011955 -10.9074 66.9576 -1 -10.9074 66.9576 TC 35 -10.9267 66.9580 2 20 253
1954201S06089 1955 32 SI MM NOT_NAMED 1954-07-26 18:00:00 TS -11.2000 66.0000 main 1334 1254 O________OO___ jtwc_sh SH011955 -11.2000 66.0000 -1 -11.2000 66.0000 TC 35 -11.2000 66.0000 2 19 254
1954201S06089 1955 32 SI MM NOT_NAMED 1954-07-26 21:00:00 TS -11.4222 65.0903 main 1254 1184 P________PP___ SH011955 -11.4147 65.0848 -1 -11.4147 65.0848 TC 35 -11.4372 65.1015 2 18 257
1954201S06089 1955 32 SI MM NOT_NAMED 1954-07-27 00:00:00 TS -11.6173 64.2041 main 1178 1110 O________OP___ jtwc_sh SH011955 -11.6000 64.2000 -1 -11.6000 64.2000 TC 35 -11.6518 64.2124 2 18 257
1954201S06089 1955 32 SI MM NOT_NAMED 1954-07-27 03:00:00 TS -11.8183 63.3374 main 1104 1041 P________PP___ SH011955 -11.8072 63.3350 -1 -11.8072 63.3350 TC 35 -11.8405 63.3422 2 17 257
1954201S06089 1955 32 SI MM NOT_NAMED 1954-07-27 06:00:00 TS -12.0000 62.5000 main 1041 981 O________OO___ jtwc_sh SH011955 -12.0000 62.5000 -1 -12.0000 62.5000 TC 35 -12.0000 62.5000 2 16 258
1954201S06089 1955 32 SI MM NOT_NAMED 1954-07-27 09:00:00 TS -12.1654 61.6968 main 981 941 P________PP___ SH011955 -12.1723 61.6850 -1 -12.1723 61.6850 TC 35 -12.1515 61.7205 2 16 259
1954201S06089 1955 32 SI MM NOT_NAMED 1954-07-27 12:00:00 TS -12.2909 60.9216 main 937 902 O________OP___ jtwc_sh SH011955 -12.3000 60.9000 -1 -12.3000 60.9000 TC 35 -12.2728 60.9649 2 15 262
1954201S06089 1955 32 SI MM NOT_NAMED 1954-07-27 15:00:00 TS -12.3672 60.1822 main 902 880 P________PP___ SH011955 -12.3720 60.1724 -1 -12.3720 60.1724 TC 35 -12.3577 60.2019 2 15 266
1954201S06089 1955 32 SI MM NOT_NAMED 1954-07-27 18:00:00 TS -12.4000 59.4000 main 880 865 O________OO___ jtwc_sh SH011955 -12.4000 59.4000 -1 -12.4000 59.4000 TC 35 -12.4000 59.4000 2 17 268
1954201S06089 1955 32 SI MM NOT_NAMED 1954-07-27 21:00:00 TS -12.4265 58.4743 main 865 827 P________PP___ SH011955 -12.4225 58.4726 -1 -12.4225 58.4726 TC 35 -12.4344 58.4778 2 19 270
1954201S06089 1955 32 SI MM NOT_NAMED 1954-07-28 00:00:00 TS -12.4070 57.5068 main 817 724 O________OP___ jtwc_sh SH011955 -12.4000 57.5000 -1 -12.4000 57.5000 TC 35 -12.4210 57.5205 2 19 273
1954201S06089 1955 32 SI MM NOT_NAMED 1954-07-28 03:00:00 TS -12.3406 56.5677 main 724 632 P________PP___ SH011955 -12.3374 56.5626 -1 -12.3374 56.5626 TC 35 -12.3469 56.5779 2 18 277
1954201S06089 1955 32 SI MM NOT_NAMED 1954-07-28 06:00:00 TS -12.2000 55.7000 main 632 564 O________OO___ jtwc_sh SH011955 -12.2000 55.7000 -1 -12.2000 55.7000 TC 35 -12.2000 55.7000 2 16 283
1954201S06089 1955 32 SI MM NOT_NAMED 1954-07-28 09:00:00 TS -11.9896 54.9608 main 564 499 P________PP___ SH011955 -11.9871 54.9626 -1 -11.9871 54.9626 TC 35 -11.9947 54.9573 2 15 290
1954201S06089 1955 32 SI MM NOT_NAMED 1954-07-28 12:00:00 TS -11.7060 54.2943 main 499 450 O________OP___ jtwc_sh SH011955 -11.7000 54.3000 -1 -11.7000 54.3000 TC 35 -11.7180 54.2829 2 14 296
1954201S06089 1955 32 SI MM NOT_NAMED 1954-07-28 15:00:00 TS -11.3756 53.6474 main 440 404 P________PP___ SH011955 -11.3723 53.6501 -1 -11.3723 53.6501 TC 35 -11.3824 53.6420 2 15 299
1954201S06089 1955 32 SI MM NOT_NAMED 1954-07-28 18:00:00 TS -11.0000 53.0000 main 404 367 O________OO___ jtwc_sh SH011955 -11.0000 53.0000 -1 -11.0000 53.0000 TC 35 -11.0000 53.0000 2 15 300
1954201S06089 1955 32 SI MM NOT_NAMED 1954-07-28 21:00:00 TS -10.6089 52.3150 main 363 329 P________PP___ SH011955 -10.6224 52.3077 -1 -10.6224 52.3077 TC 35 -10.5819 52.3297 2 16 301
1954201S06089 1955 32 SI MM NOT_NAMED 1954-07-29 00:00:00 TS -10.1790 51.6111 main 328 315 O________OP___ jtwc_sh SH011955 -10.2000 51.6000 -1 -10.2000 51.6000 TC 35 -10.1369 51.6333 2 17 303
1954201S06089 1955 32 SI MM NOT_NAMED 1954-07-29 03:00:00 TS -9.70297 50.9048 main 320 319 P________PP___ SH011955 -9.71777 50.8971 -1 -9.71777 50.8971 TC 35 -9.67339 50.9202 2 17 305
1954201S06089 1955 32 SI MM NOT_NAMED 1954-07-29 06:00:00 TS -9.20000 50.2000 main 339 O________OO___ jtwc_sh SH011955 -9.20000 50.2000 -1 -9.20000 50.2000 TC 35 -9.20000 50.2000 2 17 306

IBTrACS Databaseについて

本データベースは、米国NOAAが公開する1842年以降の世界の熱帯低気圧のベストトラックデータアーカイブInternational Best Track Archive for Climate Stewardship (IBTrACS)を、ウェブで閲覧しやすい形式に変換したものです。

最終更新日:2021-11-26